Time;durP1;ratioP1;P1;durP2;ratioP2;P2;SDS_P1;SDS_P2;PMS_P1;PMS_P2;Temp;Humidity;BMP_temperature;BMP_pressure;BME280_temperature;BME280_humidity;BME280_pressure;Samples;Min_cycle;Max_cycle;Signal;HPM_P1;HPM_P2
2022/08/22 00:01:22;;;;;;;3.20;2.70;;;;;;;11.91;nan;100916.25;4929369;29;20490;-80
2022/08/22 00:04:22;;;;;;;4.43;2.80;;;;;;;11.92;nan;100916.19;4935436;29;20393;-79
2022/08/22 00:07:12;;;;;;;5.03;3.17;;;;;;;11.89;nan;100911.00;4922912;29;20043;-80
2022/08/22 00:09:54;;;;;;;4.47;3.28;;;;;;;11.87;nan;100926.03;4929261;29;20039;-80
2022/08/22 00:12:39;;;;;;;3.38;3.00;;;;;;;11.80;nan;100917.34;4926927;29;20048;-79
2022/08/22 00:15:16;;;;;;;3.88;3.25;;;;;;;11.76;nan;100912.97;4931733;29;20038;-80
2022/08/22 00:18:11;;;;;;;4.25;3.00;;;;;;;11.74;nan;100911.28;4916405;29;20424;-79
2022/08/22 00:20:48;;;;;;;3.55;2.80;;;;;;;11.70;nan;100912.25;4919028;29;20574;-80
2022/08/22 00:23:21;;;;;;;3.28;2.97;;;;;;;11.69;nan;100910.53;4927186;29;20046;-80
2022/08/22 00:26:00;;;;;;;5.40;2.83;;;;;;;11.68;nan;100914.03;4912301;29;20051;-80
2022/08/22 00:28:40;;;;;;;3.05;2.60;;;;;;;11.67;nan;100909.66;4918111;29;20703;-79
2022/08/22 00:31:18;;;;;;;4.13;3.00;;;;;;;11.62;nan;100907.13;4924405;29;20501;-80
2022/08/22 00:33:49;;;;;;;4.82;2.90;;;;;;;11.61;nan;100909.81;4930919;29;20490;-81
2022/08/22 00:36:25;;;;;;;4.97;3.40;;;;;;;11.58;nan;100905.44;4926289;29;20039;-79
2022/08/22 00:39:03;;;;;;;5.20;3.13;;;;;;;11.55;nan;100910.78;4929719;29;20048;-79
2022/08/22 00:41:49;;;;;;;3.42;2.85;;;;;;;11.49;nan;100908.28;4913734;29;20035;-80
2022/08/22 00:44:41;;;;;;;3.42;2.88;;;;;;;11.45;nan;100911.91;4927733;29;20120;-79
2022/08/22 00:47:33;;;;;;;4.10;3.67;;;;;;;11.47;nan;100916.25;4929471;29;20076;-80
2022/08/22 00:50:18;;;;;;;4.70;3.38;;;;;;;11.47;nan;100910.06;4933235;29;20046;-80
2022/08/22 00:53:04;;;;;;;4.13;3.00;;;;;;;11.42;nan;100909.28;4907705;29;20062;-78
2022/08/22 00:55:36;;;;;;;3.22;2.90;;;;;;;11.37;nan;100905.88;4929165;29;20050;-79
2022/08/22 00:58:15;;;;;;;4.53;3.03;;;;;;;11.35;nan;100915.59;4916997;29;20039;-80
2022/08/22 01:00:52;;;;;;;3.40;3.00;;;;;;;11.32;nan;100913.03;4926018;29;20047;-79
2022/08/22 01:03:50;;;;;;;3.35;3.05;;;;;;;11.31;nan;100911.28;4931691;29;20044;-78
2022/08/22 01:06:34;;;;;;;3.92;3.45;;;;;;;11.28;nan;100914.88;4916108;29;20027;-80
2022/08/22 01:09:04;;;;;;;;;;;;;;;11.25;nan;100915.78;4915037;29;20448;-78
2022/08/22 01:11:37;;;;;;;5.57;3.65;;;;;;;11.22;nan;100920.25;4932314;29;19929;-79
2022/08/22 01:14:26;;;;;;;3.92;3.53;;;;;;;11.19;nan;100922.97;4933620;29;20040;-78
2022/08/22 01:17:15;;;;;;;5.18;3.45;;;;;;;11.13;nan;100917.81;4926770;29;20520;-78
2022/08/22 01:20:16;;;;;;;3.60;2.92;;;;;;;11.09;nan;100918.75;4932388;29;20040;-78
2022/08/22 01:23:20;;;;;;;3.47;3.05;;;;;;;11.05;nan;100917.94;4957825;23;20035;-81
2022/08/22 01:26:05;;;;;;;3.37;2.80;;;;;;;11.04;nan;100924.13;4944162;28;20035;-81
2022/08/22 01:28:50;;;;;;;;;;;;;;;11.04;nan;100918.84;4949116;29;20638;-81
2022/08/22 01:31:36;;;;;;;4.53;2.97;;;;;;;11.05;nan;100930.28;4930516;29;19923;-82
2022/08/22 01:34:40;;;;;;;4.22;3.65;;;;;;;10.99;nan;100931.25;4941333;29;20530;-82
2022/08/22 01:37:45;;;;;;;3.33;2.97;;;;;;;10.94;nan;100941.94;4929452;29;20042;-82
2022/08/22 01:40:36;;;;;;;3.25;2.95;;;;;;;10.93;nan;100937.53;4943278;29;20038;-82
2022/08/22 01:43:42;;;;;;;4.25;3.30;;;;;;;10.91;nan;100944.59;4943057;28;20047;-82
2022/08/22 01:46:33;;;;;;;3.53;3.00;;;;;;;10.87;nan;100944.69;4929672;29;20044;-82
2022/08/22 01:49:12;;;;;;;3.80;3.40;;;;;;;10.85;nan;100947.38;4946768;29;20036;-82
2022/08/22 01:51:45;;;;;;;3.35;3.05;;;;;;;10.83;nan;100940.34;4912011;29;20039;-82
2022/08/22 01:54:36;;;;;;;3.97;3.03;;;;;;;10.79;nan;100944.84;4934845;29;20050;-81
2022/08/22 01:57:09;;;;;;;3.67;2.60;;;;;;;10.79;nan;100938.69;4915086;29;20051;-81
2022/08/22 01:59:41;;;;;;;4.10;3.38;;;;;;;10.78;nan;100951.03;4900933;29;20050;-82
2022/08/22 02:02:46;;;;;;;4.68;3.35;;;;;;;10.77;nan;100941.34;4921217;29;20040;-82
2022/08/22 02:05:26;;;;;;;4.32;3.45;;;;;;;10.76;nan;100942.22;4926311;29;20042;-82
2022/08/22 02:08:04;;;;;;;4.53;3.72;;;;;;;10.74;nan;100940.50;4942836;28;20044;-81
2022/08/22 02:10:42;;;;;;;3.67;3.20;;;;;;;10.72;nan;100943.19;4914401;29;20382;-81
2022/08/22 02:13:12;;;;;;;6.28;3.78;;;;;;;10.68;nan;100939.72;4905158;29;20044;-82
2022/08/22 02:15:39;;;;;;;3.50;3.20;;;;;;;10.66;nan;100930.94;4917039;29;20959;-80
2022/08/22 02:18:05;;;;;;;4.65;3.20;;;;;;;10.67;nan;100931.81;4937340;29;20408;-81
2022/08/22 02:21:11;;;;;;;4.95;3.33;;;;;;;10.69;nan;100925.63;4933787;29;20040;-82
2022/08/22 02:23:59;;;;;;;4.68;3.13;;;;;;;10.64;nan;100935.38;4881375;29;20044;-82
2022/08/22 02:26:49;;;;;;;3.60;3.10;;;;;;;10.59;nan;100938.97;4925059;29;20523;-82
2022/08/22 02:29:21;;;;;;;5.57;3.95;;;;;;;10.54;nan;100939.06;4919932;29;20048;-82
2022/08/22 02:32:04;;;;;;;4.15;3.30;;;;;;;10.53;nan;100933.81;4928880;29;20039;-81
2022/08/22 02:34:39;;;;;;;5.50;3.28;;;;;;;10.52;nan;100940.00;4935560;29;20039;-82
2022/08/22 02:37:37;;;;;;;5.57;3.35;;;;;;;10.51;nan;100930.31;4905182;29;20043;-81
2022/08/22 02:40:07;;;;;;;3.95;3.28;;;;;;;10.53;nan;100937.34;4934225;29;20036;-82
2022/08/22 02:42:50;;;;;;;3.58;3.28;;;;;;;10.52;nan;100943.50;4910841;29;20047;-82
2022/08/22 02:45:37;;;;;;;4.72;3.80;;;;;;;10.46;nan;100935.69;4932796;29;20028;-82
2022/08/22 02:48:38;;;;;;;4.53;3.10;;;;;;;10.43;nan;100935.72;4896218;29;20048;-81
2022/08/22 02:51:11;;;;;;;4.20;3.15;;;;;;;10.39;nan;100932.25;4917596;29;20077;-81
2022/08/22 02:53:54;;;;;;;4.60;3.50;;;;;;;10.41;nan;100937.50;4929717;29;20045;-83
2022/08/22 02:56:34;;;;;;;3.78;3.10;;;;;;;10.38;nan;100937.56;4915826;29;20127;-82
2022/08/22 02:59:26;;;;;;;3.88;3.45;;;;;;;10.34;nan;100934.09;4891409;29;20049;-83
2022/08/22 03:01:54;;;;;;;4.70;3.50;;;;;;;10.33;nan;100934.09;4923092;29;20382;-83
2022/08/22 03:04:30;;;;;;;4.40;3.03;;;;;;;10.30;nan;100935.03;4944553;29;20050;-83
2022/08/22 03:07:12;;;;;;;4.93;3.63;;;;;;;10.32;nan;100929.72;4944530;29;20047;-82
2022/08/22 03:09:58;;;;;;;4.60;4.05;;;;;;;10.34;nan;100938.50;4939263;28;20039;-83
2022/08/22 03:12:48;;;;;;;4.10;3.30;;;;;;;10.29;nan;100930.66;4909984;29;20048;-83
2022/08/22 03:15:38;;;;;;;3.90;3.22;;;;;;;10.26;nan;100927.19;4909115;29;20047;-83
2022/08/22 03:18:11;;;;;;;5.30;3.75;;;;;;;10.24;nan;100934.25;4936687;29;20036;-83
2022/08/22 03:20:43;;;;;;;4.20;3.67;;;;;;;10.21;nan;100929.84;4926099;29;20051;-83
2022/08/22 03:23:30;;;;;;;4.00;3.40;;;;;;;10.20;nan;100933.41;4900860;29;20039;-83
2022/08/22 03:26:05;;;;;;;3.60;3.08;;;;;;;10.21;nan;100927.22;4916174;29;20052;-81
2022/08/22 03:28:45;;;;;;;5.05;3.42;;;;;;;10.21;nan;100931.63;4900768;29;20036;-82
2022/08/22 03:31:25;;;;;;;5.10;3.30;;;;;;;10.16;nan;100927.28;4909153;29;20047;-81
2022/08/22 03:34:25;;;;;;;4.03;3.13;;;;;;;10.13;nan;100929.97;4919824;29;20505;-83
2022/08/22 03:37:14;;;;;;;5.22;3.33;;;;;;;10.12;nan;100927.34;4930755;29;20062;-82
2022/08/22 03:39:50;;;;;;;3.85;3.38;;;;;;;10.11;nan;100926.47;4914586;29;20055;-83
2022/08/22 03:42:44;;;;;;;5.90;3.63;;;;;;;10.11;nan;100929.13;4912669;29;20058;-83
2022/08/22 03:45:25;;;;;;;3.90;3.25;;;;;;;10.11;nan;100929.13;4917335;29;20523;-82
2022/08/22 03:48:23;;;;;;;4.82;3.95;;;;;;;10.09;nan;100923.00;4900091;29;20048;-83
2022/08/22 03:51:05;;;;;;;4.22;3.28;;;;;;;10.08;nan;100933.56;4943329;29;20056;-83
2022/08/22 03:53:44;;;;;;;4.47;3.38;;;;;;;10.06;nan;100925.66;4928808;29;20544;-82
2022/08/22 03:56:43;;;;;;;3.88;3.40;;;;;;;10.04;nan;100927.47;4934427;29;20044;-83
2022/08/22 03:59:39;;;;;;;3.45;3.05;;;;;;;10.05;nan;100923.06;4917521;29;20651;-81
2022/08/22 04:02:36;;;;;;;4.45;3.03;;;;;;;10.06;nan;100924.78;4929628;29;20043;-82
2022/08/22 04:05:33;;;;;;;4.53;3.40;;;;;;;10.04;nan;100932.75;4925345;29;20035;-82
2022/08/22 04:08:17;;;;;;;4.50;3.20;;;;;;;10.04;nan;100935.38;4928822;29;20054;-82
2022/08/22 04:11:03;;;;;;;5.45;3.08;;;;;;;10.03;nan;100932.78;4916030;29;20043;-83
2022/08/22 04:13:39;;;;;;;4.97;3.63;;;;;;;10.02;nan;100934.53;4913889;29;20048;-82
2022/08/22 04:16:19;;;;;;;5.55;3.92;;;;;;;10.03;nan;100938.91;4945816;29;20036;-82
2022/08/22 04:19:11;;;;;;;4.38;3.65;;;;;;;10.03;nan;100943.31;4933749;29;20046;-82
2022/08/22 04:22:01;;;;;;;3.60;3.25;;;;;;;10.05;nan;100952.97;4926654;29;20038;-82
2022/08/22 04:24:44;;;;;;;5.60;3.50;;;;;;;10.09;nan;100952.03;4924346;29;20048;-82
2022/08/22 04:27:28;;;;;;;3.70;3.05;;;;;;;10.11;nan;100958.16;4915798;29;20032;-83
2022/08/22 04:30:08;;;;;;;3.90;3.40;;;;;;;10.14;nan;100963.38;4894329;29;20040;-82
2022/08/22 04:32:48;;;;;;;5.43;3.55;;;;;;;10.17;nan;100957.19;4920811;29;20041;-82
2022/08/22 04:35:28;;;;;;;3.75;3.35;;;;;;;10.22;nan;100959.78;4916421;29;20039;-83
2022/08/22 04:37:59;;;;;;;4.15;3.58;;;;;;;10.27;nan;100960.63;4924904;29;20039;-83
2022/08/22 04:40:32;;;;;;;4.40;3.42;;;;;;;10.30;nan;100960.56;4914881;29;20062;-82
2022/08/22 04:43:05;;;;;;;3.80;3.15;;;;;;;10.34;nan;100968.44;4930982;29;20047;-82
2022/08/22 04:45:38;;;;;;;4.40;3.35;;;;;;;10.40;nan;100968.31;4902121;29;20039;-82
2022/08/22 04:48:08;;;;;;;4.20;3.40;;;;;;;10.50;nan;100974.34;4929003;29;20044;-82
2022/08/22 04:50:41;;;;;;;4.63;3.58;;;;;;;10.55;nan;100969.88;4910339;29;20484;-82
2022/08/22 04:53:36;;;;;;;4.30;3.47;;;;;;;10.60;nan;100975.97;4932051;29;20046;-83
2022/08/22 04:56:31;;;;;;;4.05;3.20;;;;;;;10.66;nan;100975.84;4897975;29;20036;-83
2022/08/22 04:59:01;;;;;;;6.25;3.30;;;;;;;10.72;nan;100980.19;4916836;29;20509;-83
2022/08/22 05:01:47;;;;;;;3.63;3.20;;;;;;;10.78;nan;100976.56;4911875;29;20042;-83
2022/08/22 05:04:19;;;;;;;5.50;3.72;;;;;;;10.79;nan;100976.53;4896929;29;20617;-83
2022/08/22 05:06:50;;;;;;;4.38;3.20;;;;;;;10.79;nan;100986.25;4928208;29;20028;-83
2022/08/22 05:09:22;;;;;;;4.55;3.33;;;;;;;10.83;nan;100982.63;4932258;29;20038;-83
2022/08/22 05:11:52;;;;;;;5.35;3.72;;;;;;;10.87;nan;100992.28;4898629;29;20503;-83
2022/08/22 05:15:02;;;;;;;3.50;3.20;;;;;;;10.91;nan;100991.31;4931614;29;20104;-83
2022/08/22 05:17:30;;;;;;;3.78;3.22;;;;;;;10.97;nan;101001.81;4883531;29;20048;-83
2022/08/22 05:20:03;;;;;;;4.25;3.22;;;;;;;11.03;nan;100993.78;4878826;29;20045;-83
2022/08/22 05:22:34;;;;;;;3.75;3.05;;;;;;;11.09;nan;100998.06;4887391;29;20066;-83
2022/08/22 05:25:07;;;;;;;4.55;3.15;;;;;;;11.13;nan;100998.00;4938138;29;20046;-83
2022/08/22 05:27:39;;;;;;;4.32;3.28;;;;;;;11.19;nan;100999.69;4930942;29;20043;-83
2022/08/22 05:30:15;;;;;;;3.53;2.90;;;;;;;11.24;nan;101003.09;4897720;29;20048;-83
2022/08/22 05:32:57;;;;;;;4.13;3.15;;;;;;;11.33;nan;101005.56;4912789;29;20039;-83
2022/08/22 05:35:33;;;;;;;3.45;3.13;;;;;;;11.47;nan;101002.69;4915591;29;20392;-83
2022/08/22 05:38:02;;;;;;;3.88;3.45;;;;;;;11.52;nan;101000.84;4898421;29;20405;-83
2022/08/22 05:40:30;;;;;;;3.67;2.95;;;;;;;11.56;nan;101003.38;4926736;29;20036;-83
2022/08/22 05:42:57;;;;;;;4.07;3.00;;;;;;;11.62;nan;101006.81;4912614;29;20052;-83
2022/08/22 05:45:26;;;;;;;4.20;3.13;;;;;;;11.70;nan;101003.13;4907735;29;20043;-83
2022/08/22 05:47:57;;;;;;;4.13;2.92;;;;;;;11.80;nan;101003.84;4926294;29;20050;-83
2022/08/22 05:50:48;;;;;;;4.57;3.03;;;;;;;11.89;nan;101006.31;4902891;29;20070;-84
2022/08/22 05:53:37;;;;;;;4.32;2.88;;;;;;;11.97;nan;101011.44;4922616;29;20043;-84
2022/08/22 05:56:10;;;;;;;3.15;2.55;;;;;;;12.05;nan;101006.84;4906553;29;20055;-84
2022/08/22 05:58:37;;;;;;;3.80;3.17;;;;;;;12.11;nan;101012.03;4912882;29;20047;-81
2022/08/22 06:01:15;;;;;;;3.70;3.08;;;;;;;12.24;nan;101016.16;4930171;29;20044;-82
2022/08/22 06:03:55;;;;;;;3.95;3.05;;;;;;;12.38;nan;101006.13;4932040;29;20047;-83
2022/08/22 06:06:23;;;;;;;3.47;2.75;;;;;;;12.46;nan;101008.59;4902604;29;20044;-82
2022/08/22 06:09:07;;;;;;;4.18;2.88;;;;;;;12.56;nan;101010.13;4912333;29;20040;-83
2022/08/22 06:12:10;;;;;;;3.63;3.22;;;;;;;12.72;nan;101013.31;4914001;29;20051;-83
2022/08/22 06:14:46;;;;;;;3.10;2.80;;;;;;;12.82;nan;101019.25;4915677;29;20058;-82
2022/08/22 06:17:25;;;;;;;3.67;3.38;;;;;;;12.96;nan;101019.81;4913492;29;20038;-85
2022/08/22 06:19:53;;;;;;;3.45;3.15;;;;;;;13.12;nan;101017.66;4900256;29;20043;-83
2022/08/22 06:22:25;;;;;;;4.45;3.35;;;;;;;13.31;nan;101021.59;4922233;29;20645;-85
2022/08/22 06:24:54;;;;;;;4.05;3.03;;;;;;;13.61;nan;101016.38;4912117;29;20085;-83
2022/08/22 06:27:25;;;;;;;3.00;2.47;;;;;;;14.06;nan;101022.19;4914438;29;20056;-82
2022/08/22 06:29:59;;;;;;;3.17;2.60;;;;;;;14.50;nan;101025.31;4914387;29;20743;-84
2022/08/22 06:32:29;;;;;;;2.60;2.40;;;;;;;14.99;nan;101016.66;4914653;29;20055;-83
2022/08/22 06:38:27;;;;;;;2.80;2.47;;;;;;;16.24;nan;101020.22;4914929;29;20409;-82
2022/08/22 06:40:55;;;;;;;2.53;2.17;;;;;;;16.80;nan;101019.81;4928515;29;20051;-81
2022/08/22 06:43:23;;;;;;;3.10;2.22;;;;;;;17.27;nan;101021.44;4907452;29;20502;-83
2022/08/22 06:45:51;;;;;;;3.80;2.83;;;;;;;17.70;nan;101025.84;4919965;29;20043;-83
2022/08/22 06:48:21;;;;;;;4.18;2.30;;;;;;;17.73;nan;101031.91;4935128;29;20081;-83
2022/08/22 06:50:55;;;;;;;3.97;2.38;;;;;;;17.62;nan;101025.25;4933302;29;20035;-84
2022/08/22 06:53:34;;;;;;;2.83;2.17;;;;;;;17.47;nan;101026.78;4913794;29;20039;-83
2022/08/22 06:56:03;;;;;;;4.18;2.40;;;;;;;17.43;nan;101022.53;4900438;29;20043;-83
2022/08/22 06:58:34;;;;;;;3.47;2.80;;;;;;;17.61;nan;101028.88;4934763;29;20047;-83
2022/08/22 07:01:05;;;;;;;3.25;2.47;;;;;;;17.92;nan;101029.28;4898986;29;20403;-83
2022/08/22 07:03:51;;;;;;;4.20;2.25;;;;;;;18.26;nan;101027.75;4928411;29;20043;-83
2022/08/22 07:06:34;;;;;;;5.25;2.40;;;;;;;18.57;nan;101028.00;4933093;29;20032;-84
2022/08/22 07:09:04;;;;;;;3.22;2.50;;;;;;;18.78;nan;101036.88;4905077;29;20047;-83
2022/08/22 07:11:35;;;;;;;3.35;2.40;;;;;;;18.95;nan;101038.72;4917689;29;20051;-84
2022/08/22 07:14:10;;;;;;;11.63;3.40;;;;;;;19.14;nan;101038.66;4936089;29;20052;-84
2022/08/22 07:16:42;;;;;;;4.28;2.45;;;;;;;19.43;nan;101039.03;4930707;29;20038;-84
2022/08/22 07:19:27;;;;;;;2.47;2.00;;;;;;;19.65;nan;101037.84;4915828;29;20052;-84
2022/08/22 07:21:56;;;;;;;3.97;2.28;;;;;;;19.86;nan;101040.38;4916183;29;20046;-84
2022/08/22 07:24:26;;;;;;;3.95;2.47;;;;;;;20.07;nan;101035.66;4934187;29;20048;-82
2022/08/22 07:27:17;;;;;;;3.13;2.50;;;;;;;20.30;nan;101039.78;4917170;29;20046;-81
2022/08/22 07:29:58;;;;;;;2.45;2.15;;;;;;;20.42;nan;101044.47;4989542;23;20069;-78
2022/08/22 07:32:31;;;;;;;3.70;2.50;;;;;;;20.57;nan;101042.78;4927179;29;20066;-79
2022/08/22 07:35:04;;;;;;;2.63;2.30;;;;;;;20.64;nan;101039.66;4919603;29;20409;-79
2022/08/22 07:37:52;;;;;;;4.32;2.35;;;;;;;20.69;nan;101042.13;4913238;29;20625;-79
2022/08/22 07:40:22;;;;;;;2.33;2.13;;;;;;;20.79;nan;101044.19;4914716;29;20409;-79
2022/08/22 07:43:03;;;;;;;2.65;2.20;;;;;;;20.99;nan;101048.41;4914743;29;20044;-79
2022/08/22 07:45:51;;;;;;;5.88;2.00;;;;;;;21.18;nan;101050.88;4911771;29;20413;-79
2022/08/22 07:48:42;;;;;;;2.15;1.83;;;;;;;21.57;nan;101049.50;4911470;29;20062;-79
2022/08/22 07:51:44;;;;;;;3.30;2.30;;;;;;;21.63;nan;101052.72;4905932;29;20040;-80
2022/08/22 07:54:13;;;;;;;2.22;2.00;;;;;;;21.77;nan;101051.00;4915259;29;20532;-79
2022/08/22 07:56:52;;;;;;;3.45;2.00;;;;;;;21.91;nan;101042.94;4913488;29;20493;-78
2022/08/22 07:59:21;;;;;;;2.10;1.75;;;;;;;21.96;nan;101048.06;4909788;29;20040;-79
2022/08/22 08:01:52;;;;;;;3.40;2.28;;;;;;;22.16;nan;101045.00;4897289;29;20401;-79
2022/08/22 08:04:25;;;;;;;3.15;2.10;;;;;;;22.14;nan;101041.56;4914350;29;20050;-79
2022/08/22 08:06:55;;;;;;;3.60;2.10;;;;;;;22.14;nan;101041.56;4912991;29;20036;-79
2022/08/22 08:09:23;;;;;;;3.03;2.10;;;;;;;22.19;nan;101039.44;4909394;29;20045;-80
2022/08/22 08:11:51;;;;;;;2.58;1.80;;;;;;;22.23;nan;101043.66;4912058;29;20524;-79
2022/08/22 08:14:21;;;;;;;3.28;1.95;;;;;;;22.36;nan;101046.44;4913940;29;20047;-79
2022/08/22 08:17:27;;;;;;;3.38;2.00;;;;;;;22.50;nan;101050.97;4896345;29;20531;-79
2022/08/22 08:20:03;;;;;;;3.60;2.00;;;;;;;22.54;nan;101050.69;4917022;29;20059;-80
2022/08/22 08:22:32;;;;;;;4.72;2.10;;;;;;;22.71;nan;101052.28;4898106;29;20082;-79
2022/08/22 08:24:59;;;;;;;7.40;2.15;;;;;;;22.66;nan;101052.56;4915652;29;20050;-80
2022/08/22 08:30:18;;;;;;;5.10;2.42;;;;;;;22.64;nan;101053.63;4911288;29;20043;-81
2022/08/22 08:32:56;;;;;;;3.65;1.80;;;;;;;22.55;nan;101054.22;4913178;29;20391;-79
2022/08/22 08:35:48;;;;;;;3.58;1.98;;;;;;;22.45;nan;101053.97;4913365;29;20075;-80
2022/08/22 08:38:32;;;;;;;2.55;1.90;;;;;;;22.52;nan;101047.19;4901245;29;20036;-80
2022/08/22 08:41:37;;;;;;;3.00;1.90;;;;;;;22.53;nan;101048.91;4903066;29;20048;-80
2022/08/22 08:44:29;;;;;;;2.45;1.83;;;;;;;22.47;nan;101054.72;4920020;29;20048;-80
2022/08/22 08:47:33;;;;;;;8.63;3.05;;;;;;;22.44;nan;101049.50;4892532;29;20045;-80
2022/08/22 08:50:28;;;;;;;3.92;2.13;;;;;;;22.45;nan;101052.13;4913389;29;20040;-80
2022/08/22 08:53:13;;;;;;;4.00;1.92;;;;;;;22.48;nan;101040.28;4913581;29;20040;-79
2022/08/22 08:56:24;;;;;;;3.05;1.90;;;;;;;22.58;nan;101045.94;4912067;29;20082;-80
2022/08/22 08:59:42;;;;;;;4.95;2.10;;;;;;;22.61;nan;101041.22;4912553;29;20490;-81
2022/08/22 09:02:13;;;;;;;2.83;2.00;;;;;;;22.83;nan;101048.78;4881575;29;20511;-80
2022/08/22 09:05:25;;;;;;;2.83;2.10;;;;;;;23.12;nan;101043.31;4923917;29;20052;-80
2022/08/22 09:08:10;;;;;;;2.08;1.80;;;;;;;23.24;nan;101048.75;4910678;29;20540;-80
2022/08/22 09:11:15;;;;;;;4.68;2.05;;;;;;;23.33;nan;101038.31;4912249;29;20589;-80
2022/08/22 09:13:49;;;;;;;2.78;1.63;;;;;;;23.50;nan;101030.81;4911692;29;20040;-80
2022/08/22 09:16:25;;;;;;;4.00;1.88;;;;;;;23.58;nan;101030.28;4908970;29;20091;-80
2022/08/22 09:19:31;;;;;;;2.40;1.70;;;;;;;23.52;nan;101031.56;4910750;29;20054;-80
2022/08/22 09:22:20;;;;;;;2.33;1.73;;;;;;;23.81;nan;101037.69;4912068;29;20044;-79
2022/08/22 09:25:00;;;;;;;1.90;1.67;;;;;;;23.89;nan;101042.53;4909129;29;20622;-80
2022/08/22 09:27:36;;;;;;;2.75;2.13;;;;;;;23.91;nan;101039.75;4909170;29;20060;-78
2022/08/22 09:30:09;;;;;;;3.75;1.70;;;;;;;23.89;nan;101042.53;4898782;29;20048;-79
2022/08/22 09:32:51;;;;;;;6.70;2.42;;;;;;;23.98;nan;101041.91;4911376;29;20408;-79
2022/08/22 09:35:27;;;;;;;2.97;2.17;;;;;;;24.01;nan;101038.97;4906792;29;20416;-80
2022/08/22 09:38:19;;;;;;;2.70;1.75;;;;;;;23.99;nan;101045.47;4892829;29;20051;-82
2022/08/22 09:41:12;;;;;;;1.88;1.73;;;;;;;24.08;nan;101036.72;4911146;29;20040;-81
2022/08/22 09:43:43;;;;;;;2.20;1.80;;;;;;;24.24;nan;101047.28;4917732;29;20052;-79
2022/08/22 09:46:26;;;;;;;3.35;1.80;;;;;;;24.28;nan;101043.38;4918051;29;20040;-79
2022/08/22 09:49:00;;;;;;;1.85;1.70;;;;;;;24.26;nan;101045.31;4920971;29;20115;-78
2022/08/22 09:51:33;;;;;;;2.45;1.58;;;;;;;24.41;nan;101042.44;4919977;29;20452;-77
2022/08/22 09:54:32;;;;;;;3.85;2.10;;;;;;;24.48;nan;101044.69;4916263;29;20140;-79
2022/08/22 09:57:19;;;;;;;4.32;2.30;;;;;;;24.53;nan;101043.34;4914344;29;20100;-78
2022/08/22 10:00:08;;;;;;;3.42;1.90;;;;;;;24.46;nan;101046.63;4932853;29;20123;-79
2022/08/22 10:02:41;;;;;;;3.67;1.95;;;;;;;24.56;nan;101045.00;4907365;29;20119;-79
2022/08/22 10:05:12;;;;;;;3.40;1.85;;;;;;;24.66;nan;101049.59;4903890;29;20119;-78
2022/08/22 10:07:57;;;;;;;4.78;1.98;;;;;;;24.98;nan;101044.53;4921731;29;20438;-77
2022/08/22 10:10:40;;;;;;;5.45;2.30;;;;;;;25.11;nan;101047.19;4919173;29;20765;-78
2022/08/22 10:13:16;;;;;;;2.47;1.70;;;;;;;25.34;nan;101040.06;4920234;29;20109;-78
2022/08/22 10:16:01;;;;;;;18.63;3.83;;;;;;;25.51;nan;101038.75;4919134;29;20123;-79
2022/08/22 10:19:00;;;;;;;3.55;2.08;;;;;;;25.36;nan;101048.91;4912896;29;20159;-78
2022/08/22 10:21:45;;;;;;;2.13;1.83;;;;;;;25.65;nan;101040.41;4893781;29;20055;-78
2022/08/22 10:24:29;;;;;;;4.03;2.20;;;;;;;25.70;nan;101041.75;4896934;29;20046;-78
2022/08/22 10:27:02;;;;;;;3.20;2.17;;;;;;;25.54;nan;101052.03;4908620;29;20043;-78
2022/08/22 10:29:48;;;;;;;4.28;2.00;;;;;;;25.30;nan;101048.50;4911011;29;20482;-78
2022/08/22 10:32:26;;;;;;;5.78;2.00;;;;;;;25.27;nan;101044.19;4912786;29;20515;-78
2022/08/22 10:34:56;;;;;;;3.60;2.20;;;;;;;24.96;nan;101045.59;4898921;29;20048;-78
2022/08/22 10:37:31;;;;;;;2.83;1.90;;;;;;;25.26;nan;101047.88;4908346;29;20055;-78
2022/08/22 10:40:08;;;;;;;5.22;2.38;;;;;;;25.39;nan;101042.38;4915580;29;20048;-78
2022/08/22 10:42:39;;;;;;;4.13;1.88;;;;;;;25.23;nan;101040.88;4924534;29;20036;-78
2022/08/22 10:45:29;;;;;;;2.40;1.63;;;;;;;25.32;nan;101041.16;4912533;29;20046;-78
2022/08/22 10:48:25;;;;;;;2.35;1.70;;;;;;;25.26;nan;101048.75;4915575;29;20036;-78
2022/08/22 10:51:02;;;;;;;4.15;2.03;;;;;;;25.09;nan;101043.75;4900178;29;20046;-78
2022/08/22 10:53:50;;;;;;;3.08;1.95;;;;;;;25.15;nan;101048.69;4912084;29;20043;-78
2022/08/22 10:56:22;;;;;;;1.90;1.70;;;;;;;25.06;nan;101038.59;4913726;29;20040;-77
2022/08/22 10:59:15;;;;;;;3.83;1.92;;;;;;;25.02;nan;101034.34;4915884;29;20052;-78
2022/08/22 11:01:51;;;;;;;2.65;1.88;;;;;;;24.72;nan;101045.59;4922349;29;20047;-78
2022/08/22 11:04:56;;;;;;;3.90;1.83;;;;;;;24.75;nan;101036.41;4900277;29;20047;-78
2022/08/22 11:07:44;;;;;;;2.88;1.70;;;;;;;24.68;nan;101039.53;4913121;29;20493;-79
2022/08/22 11:10:20;;;;;;;3.35;2.17;;;;;;;24.77;nan;101031.75;4916310;29;20040;-80
2022/08/22 11:13:04;;;;;;;7.63;2.58;;;;;;;25.15;nan;101037.03;4914057;29;20407;-80
2022/08/22 11:15:42;;;;;;;;;;;;;;;25.44;nan;101024.84;4914123;29;20040;-80
2022/08/22 11:18:32;;;;;;;2.30;1.60;;;;;;;25.67;nan;101027.63;4912947;29;19923;-79
2022/08/22 11:21:04;;;;;;;4.18;1.90;;;;;;;25.57;nan;101022.06;4912833;29;20040;-80
2022/08/22 11:23:37;;;;;;;3.45;1.60;;;;;;;25.53;nan;101023.25;4914204;29;20047;-80
2022/08/22 11:26:33;;;;;;;4.07;1.80;;;;;;;25.40;nan;101036.03;4905125;29;20043;-79
2022/08/22 11:29:36;;;;;;;2.35;1.65;;;;;;;25.42;nan;101031.34;4916427;29;20043;-80
2022/08/22 11:32:24;;;;;;;2.47;1.90;;;;;;;25.78;nan;101031.22;4912947;29;20048;-80
2022/08/22 11:34:57;;;;;;;1.63;1.45;;;;;;;26.22;nan;101025.97;4910992;29;20054;-79
2022/08/22 11:37:40;;;;;;;7.25;2.38;;;;;;;26.28;nan;101029.06;4910944;29;20049;-80
2022/08/22 11:40:29;;;;;;;2.58;1.95;;;;;;;26.47;nan;101024.88;4910827;29;20044;-81
2022/08/22 11:43:05;;;;;;;2.15;1.67;;;;;;;26.19;nan;101021.66;4913944;29;20062;-80
2022/08/22 11:45:42;;;;;;;2.60;1.75;;;;;;;25.81;nan;101022.88;4901055;29;20040;-78
2022/08/22 11:48:31;;;;;;;3.25;1.58;;;;;;;25.55;nan;101018.59;4925986;29;20139;-78
2022/08/22 11:51:23;;;;;;;2.33;1.90;;;;;;;25.48;nan;101020.06;4926106;29;20112;-78
2022/08/22 11:54:05;;;;;;;4.50;2.30;;;;;;;25.52;nan;101017.00;4924136;29;20100;-78
2022/08/22 11:56:42;;;;;;;2.75;1.70;;;;;;;25.51;nan;101011.72;4924146;29;20092;-79
2022/08/22 11:59:29;;;;;;;1.90;1.80;;;;;;;25.52;nan;101005.31;4924967;29;20139;-79
2022/08/22 12:02:01;;;;;;;3.65;1.90;;;;;;;25.40;nan;101008.97;4921886;29;20121;-78
2022/08/22 12:04:33;;;;;;;3.38;1.65;;;;;;;25.52;nan;101014.28;4923522;29;20095;-78
2022/08/22 12:07:21;;;;;;;3.42;2.05;;;;;;;25.31;nan;101010.53;4922773;29;20115;-78
2022/08/22 12:10:05;;;;;;;3.58;2.05;;;;;;;25.66;nan;101007.81;4907365;29;20123;-80
2022/08/22 12:13:06;;;;;;;21.08;4.18;;;;;;;26.14;nan;101001.34;4902760;29;20123;-78
2022/08/22 12:15:42;;;;;;;3.80;2.20;;;;;;;26.60;nan;101003.94;4923659;29;20092;-78
2022/08/22 12:18:41;;;;;;;2.70;1.63;;;;;;;26.60;nan;100998.53;4924457;29;20104;-78
2022/08/22 12:21:31;;;;;;;5.00;2.15;;;;;;;26.40;nan;101001.97;4922324;29;20110;-79
2022/08/22 12:24:17;;;;;;;3.45;1.80;;;;;;;26.80;nan;101003.13;4922954;29;20119;-79
2022/08/22 12:27:05;;;;;;;3.22;1.70;;;;;;;26.93;nan;100995.72;4921932;29;20123;-79
2022/08/22 12:29:47;;;;;;;2.97;2.00;;;;;;;27.06;nan;100983.84;4924337;29;20116;-78
2022/08/22 12:32:33;;;;;;;2.35;2.00;;;;;;;27.43;nan;100987.00;4922505;29;20091;-78
2022/08/22 12:35:11;;;;;;;4.97;2.42;;;;;;;27.90;nan;100977.44;4923246;29;20103;-78
2022/08/22 12:37:54;;;;;;;8.95;3.55;;;;;;;27.93;nan;100985.34;4923552;29;20569;-78
2022/08/22 12:40:40;;;;;;;2.20;1.65;;;;;;;28.10;nan;100975.69;4922786;29;20096;-79
2022/08/22 12:43:40;;;;;;;5.60;2.45;;;;;;;27.91;nan;100971.03;4921018;29;20470;-78
2022/08/22 12:46:24;;;;;;;3.38;1.90;;;;;;;27.38;nan;100984.69;4917262;29;20127;-79
2022/08/22 12:49:04;;;;;;;2.58;1.83;;;;;;;27.07;nan;100986.44;4918354;29;20100;-79
2022/08/22 12:51:46;;;;;;;4.30;2.15;;;;;;;26.59;nan;100983.25;4912117;29;20051;-79
2022/08/22 12:54:26;;;;;;;5.20;2.20;;;;;;;26.27;nan;100980.44;4920392;29;20107;-78
2022/08/22 12:57:05;;;;;;;2.58;2.00;;;;;;;26.17;nan;100980.31;4920425;29;20123;-78